createdAt,value
2022-11-29T00:01:38.667Z,20.53
2022-11-29T00:04:06.214Z,19.03
2022-11-29T00:06:34.191Z,19.83
2022-11-29T00:09:03.156Z,19.87
2022-11-29T00:11:31.500Z,22.13
2022-11-29T00:13:58.950Z,21.03
2022-11-29T00:16:26.393Z,21.70
2022-11-29T00:18:53.879Z,20.60
2022-11-29T00:21:21.330Z,22.60
2022-11-29T00:23:48.820Z,22.63
2022-11-29T00:26:16.384Z,22.63
2022-11-29T00:28:43.835Z,21.67
2022-11-29T00:31:15.747Z,21.87
2022-11-29T00:33:43.333Z,24.07
2022-11-29T00:36:11.020Z,21.83
2022-11-29T00:38:38.570Z,23.67
2022-11-29T00:41:06.182Z,23.53
2022-11-29T00:43:33.845Z,23.70
2022-11-29T00:46:01.601Z,23.87
2022-11-29T00:48:29.193Z,24.27
2022-11-29T00:50:56.687Z,25.20
2022-11-29T00:53:24.169Z,25.83
2022-11-29T00:55:52.752Z,27.10
2022-11-29T00:58:21.036Z,27.07
2022-11-29T01:00:48.952Z,28.10
2022-11-29T01:03:17.228Z,27.90
2022-11-29T01:05:45.304Z,28.27
2022-11-29T01:08:13.233Z,27.83
2022-11-29T01:10:40.684Z,27.43
2022-11-29T01:13:08.177Z,28.23
2022-11-29T01:15:35.860Z,28.67
2022-11-29T01:18:03.369Z,27.87
2022-11-29T01:20:30.824Z,28.30
2022-11-29T01:22:58.790Z,29.33
2022-11-29T01:25:26.496Z,28.37
2022-11-29T01:27:54.715Z,27.00
2022-11-29T01:30:22.149Z,28.23
2022-11-29T01:32:49.613Z,27.80
2022-11-29T01:35:17.083Z,27.23
2022-11-29T01:37:44.521Z,29.57
2022-11-29T01:40:12.187Z,30.13
2022-11-29T01:42:39.651Z,28.93
2022-11-29T01:45:10.713Z,29.07
2022-11-29T01:47:40.580Z,27.43
2022-11-29T01:50:08.469Z,29.20
2022-11-29T01:52:36.087Z,28.43
2022-11-29T01:55:06.349Z,28.40
2022-11-29T01:57:34.586Z,28.50
2022-11-29T02:00:04.986Z,28.07
2022-11-29T02:02:37.371Z,28.17
2022-11-29T02:05:05.050Z,30.20
2022-11-29T02:07:32.640Z,28.47
2022-11-29T02:10:00.239Z,27.70
2022-11-29T02:12:33.660Z,31.67
2022-11-29T02:15:07.861Z,31.10
2022-11-29T02:18:04.541Z,31.43
2022-11-29T02:20:47.171Z,29.90
2022-11-29T02:23:17.678Z,30.77
2022-11-29T02:25:54.356Z,32.63
2022-11-29T02:28:39.972Z,32.43
2022-11-29T02:31:16.512Z,31.13
2022-11-29T02:33:46.736Z,34.17
2022-11-29T02:36:24.330Z,32.70
2022-11-29T02:38:54.620Z,33.33
2022-11-29T02:41:40.220Z,33.47
2022-11-29T02:44:16.836Z,35.83
2022-11-29T02:47:03.104Z,34.60
2022-11-29T02:49:36.765Z,34.17
2022-11-29T02:52:07.776Z,35.37
2022-11-29T02:54:38.017Z,34.23
2022-11-29T02:57:11.981Z,34.43
2022-11-29T02:59:39.433Z,35.27
2022-11-29T03:02:19.134Z,35.17
2022-11-29T03:04:52.563Z,35.30
2022-11-29T03:07:39.595Z,34.50
2022-11-29T03:10:15.988Z,33.77
2022-11-29T03:12:48.600Z,34.23
2022-11-29T03:15:19.292Z,36.70
2022-11-29T03:17:58.705Z,36.80
2022-11-29T03:20:36.079Z,35.83
2022-11-29T03:23:03.534Z,35.37
2022-11-29T03:25:36.193Z,35.57
2022-11-29T03:28:06.981Z,34.40
2022-11-29T03:30:36.953Z,35.77
2022-11-29T03:33:07.184Z,34.43
2022-11-29T03:36:01.021Z,34.53
2022-11-29T03:38:40.761Z,34.37
2022-11-29T03:41:08.213Z,35.40
2022-11-29T03:43:35.664Z,36.23
2022-11-29T03:46:09.334Z,34.77
2022-11-29T03:48:59.908Z,34.37
2022-11-29T03:51:34.695Z,31.07
2022-11-29T03:54:03.925Z,34.73
2022-11-29T03:56:31.357Z,30.90
2022-11-29T03:59:04.833Z,30.83
2022-11-29T04:01:32.235Z,29.50
2022-11-29T04:04:02.545Z,30.30
2022-11-29T04:06:32.772Z,30.43
2022-11-29T04:09:18.977Z,30.90
2022-11-29T04:11:46.467Z,28.27
2022-11-29T04:14:28.861Z,30.27
2022-11-29T04:16:59.372Z,32.70
2022-11-29T04:19:45.319Z,32.37
2022-11-29T04:22:18.930Z,30.27
2022-11-29T04:25:01.704Z,32.57
2022-11-29T04:28:07.501Z,30.03
2022-11-29T04:30:53.694Z,31.47
2022-11-29T04:33:44.149Z,31.10
2022-11-29T04:36:30.225Z,29.73
2022-11-29T04:38:57.677Z,30.63
2022-11-29T04:41:44.228Z,30.57
2022-11-29T04:44:23.710Z,28.97
2022-11-29T04:47:09.925Z,28.67
2022-11-29T04:49:56.891Z,29.30
2022-11-29T04:52:31.264Z,29.50
2022-11-29T04:55:24.977Z,28.73
2022-11-29T04:57:56.837Z,26.30
2022-11-29T05:00:25.080Z,28.07
2022-11-29T05:02:57.404Z,25.10
2022-11-29T05:05:24.916Z,27.23
2022-11-29T05:07:55.436Z,26.07
2022-11-29T05:10:29.113Z,26.90
2022-11-29T05:13:16.812Z,27.13
2022-11-29T05:16:03.345Z,27.43
2022-11-29T05:18:49.401Z,27.07
2022-11-29T05:21:28.527Z,26.63
2022-11-29T05:24:03.376Z,25.97
2022-11-29T05:26:38.818Z,27.57
2022-11-29T05:29:17.001Z,23.83
2022-11-29T05:31:47.683Z,24.20
2022-11-29T05:34:15.149Z,25.33
2022-11-29T05:37:01.385Z,23.90
2022-11-29T05:39:55.350Z,25.47
2022-11-29T05:42:34.745Z,28.13
2022-11-29T05:45:09.018Z,27.37
2022-11-29T05:47:51.756Z,27.27
2022-11-29T05:50:23.381Z,26.43
2022-11-29T05:52:54.419Z,25.80
2022-11-29T05:55:34.073Z,25.97
2022-11-29T05:58:04.481Z,25.27
2022-11-29T06:00:50.638Z,24.90
2022-11-29T06:03:31.945Z,25.93
2022-11-29T06:06:03.607Z,25.37
2022-11-29T06:08:54.080Z,26.27
2022-11-29T06:11:42.541Z,22.90
2022-11-29T06:14:17.734Z,24.70
2022-11-29T06:16:57.363Z,25.73
2022-11-29T06:19:52.589Z,25.83
2022-11-29T06:22:42.851Z,24.53
2022-11-29T06:25:28.992Z,22.20
2022-11-29T06:28:04.612Z,23.47
2022-11-29T06:30:44.039Z,28.40
2022-11-29T06:33:34.819Z,25.10
2022-11-29T06:36:05.785Z,24.23
2022-11-29T06:38:33.324Z,24.57
2022-11-29T06:41:02.410Z,22.23
2022-11-29T06:43:30.860Z,22.60
2022-11-29T06:46:04.086Z,25.07
2022-11-29T06:48:36.155Z,23.57
2022-11-29T06:51:03.602Z,22.87
2022-11-29T06:53:49.382Z,23.27
2022-11-29T06:56:16.841Z,23.97
2022-11-29T06:58:53.445Z,21.23
2022-11-29T07:01:41.287Z,22.90
2022-11-29T07:04:27.341Z,24.90
2022-11-29T07:06:54.845Z,24.43
2022-11-29T07:09:23.853Z,24.97
2022-11-29T07:11:51.461Z,23.47
2022-11-29T07:14:18.963Z,25.17
2022-11-29T07:16:52.062Z,24.87
2022-11-29T07:19:29.226Z,24.80
2022-11-29T07:22:15.474Z,24.43
2022-11-29T07:24:53.913Z,24.87
2022-11-29T07:27:21.328Z,24.83
2022-11-29T07:29:51.801Z,24.53
2022-11-29T07:32:28.392Z,25.00
2022-11-29T07:35:05.633Z,25.50
2022-11-29T07:37:39.182Z,26.03
2022-11-29T07:40:14.068Z,25.53
2022-11-29T07:43:00.292Z,26.20
2022-11-29T07:45:27.740Z,26.33
2022-11-29T07:47:55.568Z,26.30
2022-11-29T07:50:23.037Z,24.20
2022-11-29T07:52:50.448Z,24.00
2022-11-29T07:55:19.789Z,23.97
2022-11-29T07:57:48.018Z,23.53
2022-11-29T08:00:15.735Z,24.80
2022-11-29T08:02:43.504Z,29.92
2022-11-29T08:05:11.026Z,27.10
2022-11-29T08:07:39.086Z,30.67
2022-11-29T08:10:08.199Z,27.07
2022-11-29T08:12:35.805Z,25.40
2022-11-29T08:15:03.265Z,23.43
2022-11-29T08:17:30.758Z,25.90
2022-11-29T08:20:03.707Z,24.00
2022-11-29T08:22:31.778Z,23.50
2022-11-29T08:24:59.269Z,25.07
2022-11-29T08:27:26.916Z,24.43
2022-11-29T08:29:54.351Z,26.27
2022-11-29T08:32:22.973Z,25.30
2022-11-29T08:34:50.424Z,24.93
2022-11-29T08:37:17.852Z,24.83
2022-11-29T08:39:45.328Z,27.27
2022-11-29T08:42:12.935Z,27.40
2022-11-29T08:44:40.447Z,29.17
2022-11-29T08:47:07.981Z,29.23
2022-11-29T08:49:35.428Z,28.70
2022-11-29T08:52:02.895Z,29.07
2022-11-29T08:54:30.326Z,28.77
2022-11-29T08:59:45.261Z,29.17
2022-11-29T09:02:12.737Z,26.13
2022-11-29T09:04:40.212Z,28.70
2022-11-29T09:07:07.690Z,25.93
2022-11-29T09:09:35.176Z,25.90
2022-11-29T09:12:02.617Z,25.20
2022-11-29T09:14:30.062Z,26.67
2022-11-29T09:16:57.613Z,24.43
2022-11-29T09:19:25.186Z,24.37
2022-11-29T09:21:52.650Z,27.00
2022-11-29T09:24:20.218Z,25.73
2022-11-29T09:26:47.771Z,26.27
2022-11-29T09:29:15.963Z,26.93
2022-11-29T09:31:44.121Z,26.47
2022-11-29T09:34:15.210Z,25.87
2022-11-29T09:36:43.025Z,27.13
2022-11-29T09:39:11.160Z,26.80
2022-11-29T09:41:53.690Z,25.77
2022-11-29T09:44:30.397Z,26.43
2022-11-29T09:46:58.940Z,28.63
2022-11-29T09:49:45.124Z,26.47
2022-11-29T09:52:19.185Z,27.13
2022-11-29T09:54:52.775Z,26.97
2022-11-29T09:57:21.740Z,27.70
2022-11-29T09:59:51.257Z,28.20
2022-11-29T10:02:38.314Z,25.27
2022-11-29T10:05:17.941Z,26.70
2022-11-29T10:07:56.125Z,26.20
2022-11-29T10:10:27.060Z,27.80
2022-11-29T10:12:57.161Z,25.50
2022-11-29T10:15:27.616Z,26.93
2022-11-29T10:17:57.472Z,23.40
2022-11-29T10:20:26.320Z,23.37
2022-11-29T10:22:57.887Z,22.77
2022-11-29T10:25:28.296Z,23.07
2022-11-29T10:27:55.759Z,22.33
2022-11-29T10:30:23.373Z,23.40
2022-11-29T10:32:58.490Z,24.17
2022-11-29T10:35:26.028Z,25.13
2022-11-29T10:38:22.633Z,23.40
2022-11-29T10:40:45.097Z,23.33
2022-11-29T10:43:12.696Z,24.00
2022-11-29T10:45:40.321Z,23.63
2022-11-29T10:48:17.022Z,24.40
2022-11-29T10:50:45.865Z,27.58
2022-11-29T10:53:15.531Z,25.17
2022-11-29T10:55:49.057Z,24.00
2022-11-29T10:58:27.658Z,23.03
2022-11-29T11:00:56.017Z,21.63
2022-11-29T11:03:28.978Z,22.93
2022-11-29T11:06:16.739Z,24.10
2022-11-29T11:08:46.251Z,23.50
2022-11-29T11:11:14.743Z,24.43
2022-11-29T11:13:42.587Z,23.37
2022-11-29T11:16:11.996Z,23.47
2022-11-29T11:18:39.883Z,23.23
2022-11-29T11:21:18.744Z,23.37
2022-11-29T11:23:51.872Z,25.53
2022-11-29T11:26:20.018Z,24.40
2022-11-29T11:28:47.483Z,23.97
2022-11-29T11:31:15.232Z,24.73
2022-11-29T11:33:46.603Z,25.70
2022-11-29T11:36:13.997Z,24.57
2022-11-29T11:38:49.672Z,25.87
2022-11-29T11:41:25.381Z,25.37
2022-11-29T11:43:55.514Z,25.50
2022-11-29T11:46:23.058Z,27.60
2022-11-29T11:48:51.463Z,25.27
2022-11-29T11:51:23.826Z,26.83
2022-11-29T11:53:56.243Z,26.57
2022-11-29T11:56:24.404Z,26.27
2022-11-29T11:58:58.534Z,28.53
2022-11-29T12:01:28.947Z,30.00
2022-11-29T12:03:56.400Z,28.23
2022-11-29T12:06:35.581Z,29.33
2022-11-29T12:09:06.225Z,28.40
2022-11-29T12:11:40.422Z,30.47
2022-11-29T12:14:08.549Z,27.97
2022-11-29T12:16:38.547Z,28.77
2022-11-29T12:19:12.826Z,27.00
2022-11-29T12:21:42.932Z,26.63
2022-11-29T12:24:21.111Z,25.23
2022-11-29T12:26:57.075Z,26.30
2022-11-29T12:29:26.522Z,25.83
2022-11-29T12:32:12.306Z,22.60
2022-11-29T12:34:53.352Z,23.67
2022-11-29T12:37:25.341Z,23.30
2022-11-29T12:39:52.758Z,24.87
2022-11-29T12:42:36.362Z,24.20
2022-11-29T12:45:21.351Z,23.30
2022-11-29T12:47:58.692Z,23.97
2022-11-29T12:50:36.637Z,24.67
2022-11-29T12:53:07.466Z,24.43
2022-11-29T12:55:53.629Z,24.87
2022-11-29T12:58:46.048Z,23.57
2022-11-29T13:01:32.496Z,21.07
2022-11-29T13:03:59.996Z,23.10
2022-11-29T13:06:27.419Z,21.43
2022-11-29T13:09:00.883Z,22.27
2022-11-29T13:11:30.149Z,22.90
2022-11-29T13:14:20.091Z,23.53
2022-11-29T13:16:49.266Z,21.77
2022-11-29T13:19:24.579Z,23.23
2022-11-29T13:22:10.811Z,21.03
2022-11-29T13:24:42.958Z,21.30
2022-11-29T13:27:15.406Z,20.73
2022-11-29T13:29:42.877Z,22.10
2022-11-29T13:32:16.658Z,22.67
2022-11-29T13:34:46.324Z,21.63
2022-11-29T13:37:27.182Z,22.50
2022-11-29T13:40:19.107Z,22.67
2022-11-29T13:42:55.572Z,22.57
2022-11-29T13:45:32.891Z,23.63
2022-11-29T13:48:01.437Z,24.70
2022-11-29T13:50:38.042Z,23.27
2022-11-29T13:53:16.141Z,24.17
2022-11-29T13:55:49.455Z,23.40
2022-11-29T13:58:19.708Z,25.20
2022-11-29T14:00:47.145Z,25.47
2022-11-29T14:03:20.760Z,25.23
2022-11-29T14:05:49.564Z,22.80
2022-11-29T14:08:42.496Z,22.90
2022-11-29T14:11:18.052Z,22.80
2022-11-29T14:13:51.897Z,25.73
2022-11-29T14:16:38.252Z,24.97
2022-11-29T14:19:05.732Z,26.07
2022-11-29T14:21:51.737Z,25.40
2022-11-29T14:24:34.320Z,26.73
2022-11-29T14:27:25.107Z,25.27
2022-11-29T14:29:55.993Z,23.97
2022-11-29T14:32:32.554Z,22.40
2022-11-29T14:35:12.296Z,22.60
2022-11-29T14:37:42.738Z,21.20
2022-11-29T14:40:29.159Z,20.80
2022-11-29T14:42:56.743Z,18.53
2022-11-29T14:45:24.210Z,19.50
2022-11-29T14:47:52.503Z,17.07
2022-11-29T14:50:30.222Z,17.60
2022-11-29T14:52:57.795Z,16.20
2022-11-29T14:55:25.305Z,16.97
2022-11-29T14:58:01.946Z,15.93
2022-11-29T15:00:38.688Z,16.70
2022-11-29T15:03:18.361Z,16.77
2022-11-29T15:05:56.065Z,18.47
2022-11-29T15:08:29.308Z,17.10
2022-11-29T15:11:01.734Z,17.97
2022-11-29T15:13:30.907Z,18.43
2022-11-29T15:16:07.420Z,16.77
2022-11-29T15:18:39.372Z,17.37
2022-11-29T15:21:25.609Z,15.93
2022-11-29T15:23:58.885Z,18.43
2022-11-29T15:26:26.342Z,18.00
2022-11-29T15:28:53.814Z,16.97
2022-11-29T15:31:21.776Z,19.30
2022-11-29T15:33:49.956Z,18.43
2022-11-29T15:36:21.714Z,18.77
2022-11-29T15:38:50.911Z,19.83
2022-11-29T15:41:28.898Z,19.07
2022-11-29T15:44:00.704Z,18.33
2022-11-29T15:46:29.588Z,19.73
2022-11-29T15:49:15.191Z,18.23
2022-11-29T15:51:42.787Z,19.60
2022-11-29T15:54:19.436Z,18.00
2022-11-29T15:56:49.647Z,17.40
2022-11-29T15:59:32.269Z,16.93
2022-11-29T16:02:01.327Z,18.13
2022-11-29T16:04:29.334Z,18.03
2022-11-29T16:06:57.312Z,17.67
2022-11-29T16:09:39.577Z,16.03
2022-11-29T16:12:12.293Z,16.47
2022-11-29T16:14:49.712Z,16.33
2022-11-29T16:17:17.419Z,16.80
2022-11-29T16:19:44.850Z,17.03
2022-11-29T16:22:12.302Z,15.67
2022-11-29T16:24:55.065Z,18.07
2022-11-29T16:27:23.253Z,17.03
2022-11-29T16:29:51.733Z,18.27
2022-11-29T16:32:26.696Z,18.03
2022-11-29T16:34:54.894Z,18.30
2022-11-29T16:37:23.751Z,17.67
2022-11-29T16:39:52.313Z,17.40
2022-11-29T16:42:27.623Z,18.70
2022-11-29T16:45:13.874Z,18.43
2022-11-29T16:47:51.535Z,18.63
2022-11-29T16:50:22.835Z,21.73
2022-11-29T16:52:54.981Z,20.60
2022-11-29T16:55:23.915Z,20.27
2022-11-29T16:57:51.445Z,22.93
2022-11-29T17:00:22.895Z,27.93
2022-11-29T17:02:50.919Z,22.60
2022-11-29T17:05:18.546Z,27.87
2022-11-29T17:07:46.277Z,21.63
2022-11-29T17:10:16.049Z,18.23
2022-11-29T17:12:47.997Z,18.20
2022-11-29T17:15:16.206Z,20.33
2022-11-29T17:17:43.821Z,20.10
2022-11-29T17:20:12.352Z,20.73
2022-11-29T17:22:40.049Z,19.37
2022-11-29T17:25:07.726Z,18.70
2022-11-29T17:27:35.947Z,19.00
2022-11-29T17:30:03.592Z,18.83
2022-11-29T17:32:33.704Z,17.97
2022-11-29T17:35:01.187Z,17.90
2022-11-29T17:37:29.695Z,18.77
2022-11-29T17:39:57.236Z,20.10
2022-11-29T17:42:24.692Z,17.97
2022-11-29T17:44:52.214Z,19.97
2022-11-29T17:47:19.638Z,21.17
2022-11-29T17:49:47.311Z,18.30
2022-11-29T17:52:14.984Z,18.43
2022-11-29T17:54:42.438Z,19.83
2022-11-29T17:57:09.911Z,19.13
2022-11-29T17:59:37.399Z,19.83
2022-11-29T18:02:04.939Z,21.23
2022-11-29T18:04:32.492Z,19.50
2022-11-29T18:06:59.959Z,19.97
2022-11-29T18:09:27.418Z,22.37
2022-11-29T18:11:54.861Z,21.53
2022-11-29T18:14:23.324Z,23.03
2022-11-29T18:16:51.411Z,21.50
2022-11-29T18:19:20.330Z,22.63
2022-11-29T18:21:48.433Z,22.70
2022-11-29T18:24:15.925Z,21.87
2022-11-29T18:26:44.062Z,22.53
2022-11-29T18:29:11.862Z,23.17
2022-11-29T18:31:41.132Z,22.50
2022-11-29T18:34:09.647Z,23.00
2022-11-29T18:36:38.883Z,25.10
2022-11-29T18:39:10.427Z,25.00
2022-11-29T18:41:38.144Z,25.47
2022-11-29T18:44:06.897Z,25.17
2022-11-29T18:46:34.994Z,23.00
2022-11-29T18:49:03.148Z,24.77
2022-11-29T18:51:31.370Z,23.47
2022-11-29T18:53:59.466Z,24.53
2022-11-29T18:56:28.937Z,25.13
2022-11-29T18:58:58.590Z,25.57
2022-11-29T19:01:27.694Z,25.83
2022-11-29T19:03:56.037Z,23.67
2022-11-29T19:06:24.804Z,25.37
2022-11-29T19:08:52.418Z,25.07
2022-11-29T19:11:23.155Z,26.77
2022-11-29T19:13:54.899Z,24.87
2022-11-29T19:16:22.754Z,27.37
2022-11-29T19:18:51.259Z,23.77
2022-11-29T19:21:19.692Z,23.17
2022-11-29T19:23:51.625Z,23.33
2022-11-29T19:26:19.183Z,21.50
2022-11-29T19:28:47.191Z,22.87
2022-11-29T19:31:15.986Z,22.03
2022-11-29T19:33:44.877Z,21.87
2022-11-29T19:36:16.791Z,24.13
2022-11-29T19:38:47.634Z,24.13
2022-11-29T19:41:21.960Z,23.93
2022-11-29T19:43:49.924Z,23.97
2022-11-29T19:46:21.797Z,24.47
2022-11-29T19:48:49.468Z,25.30
2022-11-29T19:51:17.338Z,26.47
2022-11-29T19:53:45.961Z,22.60
2022-11-29T19:56:17.235Z,26.63
2022-11-29T19:58:45.153Z,22.83
2022-11-29T20:01:13.906Z,24.20
2022-11-29T20:03:43.138Z,24.93
2022-11-29T20:06:11.141Z,25.07
2022-11-29T20:08:38.623Z,25.93
2022-11-29T20:11:13.259Z,26.13
2022-11-29T20:13:41.934Z,26.57
2022-11-29T20:16:10.978Z,26.17
2022-11-29T20:18:40.190Z,23.83
2022-11-29T20:21:09.169Z,23.60
2022-11-29T20:23:37.233Z,22.67
2022-11-29T20:26:04.822Z,23.90
2022-11-29T20:28:32.341Z,22.40
2022-11-29T20:31:04.881Z,21.07
2022-11-29T20:33:45.275Z,21.13
2022-11-29T20:36:21.787Z,21.73
2022-11-29T20:38:49.235Z,22.97
2022-11-29T20:41:25.516Z,21.80
2022-11-29T20:43:53.040Z,21.97
2022-11-29T20:46:20.779Z,21.10
2022-11-29T20:48:48.510Z,22.17
2022-11-29T20:51:16.518Z,22.90
2022-11-29T20:53:44.922Z,21.17
2022-11-29T20:56:12.728Z,21.93
2022-11-29T20:58:40.294Z,22.27
2022-11-29T21:01:08.028Z,22.53
2022-11-29T21:03:35.880Z,22.53
2022-11-29T21:06:04.057Z,24.07
2022-11-29T21:08:31.885Z,24.17
2022-11-29T21:11:05.781Z,23.87
2022-11-29T21:13:33.845Z,24.73
2022-11-29T21:16:01.582Z,24.03
2022-11-29T21:18:30.031Z,27.17
2022-11-29T21:21:06.326Z,28.27
2022-11-29T21:23:39.643Z,27.67
2022-11-29T21:26:17.427Z,30.23
2022-11-29T21:28:49.824Z,30.17
2022-11-29T21:31:18.187Z,28.70
2022-11-29T21:33:45.804Z,27.33
2022-11-29T21:36:13.609Z,28.63
2022-11-29T21:38:41.402Z,28.73
2022-11-29T21:41:08.874Z,28.37
2022-11-29T21:44:04.863Z,27.90
2022-11-29T21:46:23.884Z,27.97
2022-11-29T21:48:51.448Z,26.57
2022-11-29T21:51:19.224Z,30.03
2022-11-29T21:53:46.755Z,26.60
2022-11-29T21:56:14.396Z,27.43
2022-11-29T21:58:41.861Z,28.93
2022-11-29T22:01:10.813Z,26.33
2022-11-29T22:03:38.913Z,27.90
2022-11-29T22:06:07.623Z,28.63
2022-11-29T22:08:36.259Z,29.20
2022-11-29T22:11:05.061Z,28.17
2022-11-29T22:13:32.532Z,28.40
2022-11-29T22:16:07.047Z,29.97
2022-11-29T22:18:34.765Z,29.63
2022-11-29T22:21:06.048Z,31.37
2022-11-29T22:23:34.167Z,29.37
2022-11-29T22:26:02.300Z,28.80
2022-11-29T22:28:29.774Z,29.30
2022-11-29T22:31:07.333Z,29.07
2022-11-29T22:33:35.265Z,27.97
2022-11-29T22:36:03.775Z,29.40
2022-11-29T22:38:33.067Z,29.27
2022-11-29T22:41:01.307Z,27.80
2022-11-29T22:43:29.602Z,28.50
2022-11-29T22:46:03.649Z,27.20
2022-11-29T22:48:36.965Z,27.53
2022-11-29T22:51:16.669Z,28.07
2022-11-29T22:54:10.229Z,29.00
2022-11-29T22:56:39.322Z,29.43
2022-11-29T22:59:07.214Z,30.77
2022-11-29T23:01:35.638Z,30.37
2022-11-29T23:04:04.165Z,30.10
2022-11-29T23:06:32.896Z,29.03
2022-11-29T23:09:03.593Z,31.00
2022-11-29T23:11:31.533Z,31.43
2022-11-29T23:13:59.003Z,32.63
2022-11-29T23:16:27.677Z,32.83
2022-11-29T23:18:55.957Z,32.47
2022-11-29T23:21:24.696Z,32.60
2022-11-29T23:23:56.419Z,32.43
2022-11-29T23:26:34.305Z,31.97
2022-11-29T23:29:01.770Z,32.20
2022-11-29T23:31:29.294Z,33.10
2022-11-29T23:33:56.810Z,34.20
2022-11-29T23:36:24.337Z,30.50
2022-11-29T23:38:51.886Z,35.17
2022-11-29T23:41:19.396Z,34.67
2022-11-29T23:43:47.003Z,31.40
2022-11-29T23:46:18.806Z,32.53
2022-11-29T23:48:46.307Z,30.97
2022-11-29T23:51:13.984Z,32.93
2022-11-29T23:53:41.945Z,33.17
2022-11-29T23:56:13.204Z,35.13
2022-11-29T23:58:40.698Z,34.53
